createdAt,value
2018-10-06T00:00:27.656Z,10.10
2018-10-06T00:02:55.576Z,10.00
2018-10-06T00:05:23.607Z,10.00
2018-10-06T00:07:51.679Z,10.00
2018-10-06T00:10:20.064Z,10.00
2018-10-06T00:12:47.987Z,10.00
2018-10-06T00:15:15.979Z,10.00
2018-10-06T00:17:44.156Z,9.90
2018-10-06T00:20:12.201Z,9.90
2018-10-06T00:22:40.139Z,10.00
2018-10-06T00:25:08.091Z,9.90
2018-10-06T00:27:36.045Z,9.90
2018-10-06T00:30:04.481Z,10.00
2018-10-06T00:32:32.571Z,10.00
2018-10-06T00:35:00.808Z,9.90
2018-10-06T00:37:28.825Z,9.90
2018-10-06T00:39:56.878Z,9.90
2018-10-06T00:42:24.918Z,9.90
2018-10-06T00:44:52.989Z,9.90
2018-10-06T00:47:21.054Z,9.90
2018-10-06T00:49:49.213Z,9.80
2018-10-06T00:52:17.197Z,9.90
2018-10-06T00:54:45.362Z,9.80
2018-10-06T00:57:13.462Z,9.80
2018-10-06T00:59:41.387Z,9.80
2018-10-06T01:02:09.381Z,9.80
2018-10-06T01:04:37.639Z,9.80
2018-10-06T01:07:05.610Z,9.80
2018-10-06T01:09:33.566Z,9.80
2018-10-06T01:12:01.683Z,9.80
2018-10-06T01:14:29.756Z,9.80
2018-10-06T01:16:57.774Z,9.80
2018-10-06T01:19:25.983Z,9.80
2018-10-06T01:21:53.988Z,9.80
2018-10-06T01:24:21.995Z,9.80
2018-10-06T01:26:50.158Z,9.80
2018-10-06T01:29:18.183Z,9.80
2018-10-06T01:31:46.188Z,9.80
2018-10-06T01:34:14.101Z,9.80
2018-10-06T01:36:41.943Z,9.80
2018-10-06T01:39:10.060Z,9.80
2018-10-06T01:41:38.038Z,9.70
2018-10-06T01:44:06.020Z,9.70
2018-10-06T01:46:34.376Z,9.70
2018-10-06T01:49:02.347Z,9.70
2018-10-06T01:51:30.378Z,9.70
2018-10-06T01:53:58.668Z,9.70
2018-10-06T01:56:26.624Z,9.70
2018-10-06T01:58:54.691Z,9.70
2018-10-06T02:01:22.750Z,9.70
2018-10-06T02:03:51.136Z,9.70
2018-10-06T02:06:19.165Z,9.70
2018-10-06T02:08:47.641Z,9.70
2018-10-06T02:11:15.646Z,9.70
2018-10-06T02:13:43.816Z,9.70
2018-10-06T02:16:11.830Z,9.70
2018-10-06T02:18:40.248Z,9.70
2018-10-06T02:21:08.351Z,9.70
2018-10-06T02:23:36.453Z,9.70
2018-10-06T02:26:04.585Z,9.70
2018-10-06T02:28:32.682Z,9.70
2018-10-06T02:31:01.065Z,9.70
2018-10-06T02:33:29.067Z,9.70
2018-10-06T02:35:57.126Z,9.80
2018-10-06T02:38:25.102Z,9.80
2018-10-06T02:40:53.108Z,9.80
2018-10-06T02:43:21.162Z,9.80
2018-10-06T02:45:49.240Z,9.90
2018-10-06T02:48:17.651Z,9.90
2018-10-06T02:50:45.646Z,9.90
2018-10-06T02:53:13.684Z,9.90
2018-10-06T02:55:41.664Z,9.90
2018-10-06T02:58:09.579Z,9.90
2018-10-06T03:00:37.743Z,9.90
2018-10-06T03:03:05.875Z,9.90
2018-10-06T03:05:33.886Z,10.00
2018-10-06T03:08:01.823Z,9.90
2018-10-06T03:10:29.809Z,10.00
2018-10-06T03:12:57.828Z,10.00
2018-10-06T03:15:25.833Z,10.00
2018-10-06T03:17:53.841Z,10.00
2018-10-06T03:20:21.836Z,10.00
2018-10-06T03:22:49.943Z,10.00
2018-10-06T03:25:18.120Z,10.00
2018-10-06T03:27:46.065Z,10.00
2018-10-06T03:30:14.068Z,10.00
2018-10-06T03:32:42.039Z,10.00
2018-10-06T03:35:10.080Z,10.00
2018-10-06T03:37:38.239Z,10.00
2018-10-06T03:40:06.253Z,10.00
2018-10-06T03:42:34.359Z,10.00
2018-10-06T03:45:02.588Z,10.10
2018-10-06T03:47:30.625Z,10.00
2018-10-06T03:49:58.647Z,10.00
2018-10-06T03:52:26.653Z,10.10
2018-10-06T03:54:54.855Z,10.10
2018-10-06T03:57:22.872Z,10.10
2018-10-06T03:59:50.765Z,10.10
2018-10-06T04:02:18.755Z,10.10
2018-10-06T04:04:46.741Z,10.10
2018-10-06T04:07:14.802Z,10.10
2018-10-06T04:09:42.855Z,10.10
2018-10-06T04:12:10.811Z,10.10
2018-10-06T04:14:39.275Z,10.10
2018-10-06T04:17:07.294Z,10.10
2018-10-06T04:19:35.329Z,10.10
2018-10-06T04:22:04.273Z,10.10
2018-10-06T04:24:32.356Z,10.10
2018-10-06T04:27:00.399Z,10.10
2018-10-06T04:29:28.631Z,10.10
2018-10-06T04:31:56.863Z,10.10
2018-10-06T04:34:24.837Z,10.10
2018-10-06T04:36:52.875Z,10.10
2018-10-06T04:39:20.903Z,10.10
2018-10-06T04:41:48.926Z,10.10
2018-10-06T04:44:16.854Z,10.10
2018-10-06T04:46:44.910Z,10.10
2018-10-06T04:49:12.964Z,10.10
2018-10-06T04:51:41.048Z,10.10
2018-10-06T04:54:09.121Z,10.00
2018-10-06T04:56:37.264Z,10.00
2018-10-06T04:59:05.376Z,10.10
2018-10-06T05:01:33.449Z,10.00
2018-10-06T05:04:01.535Z,10.00
2018-10-06T05:06:29.678Z,10.00
2018-10-06T05:08:57.779Z,10.00
2018-10-06T05:11:25.811Z,10.00
2018-10-06T05:13:54.431Z,10.00
2018-10-06T05:16:22.551Z,10.00
2018-10-06T05:18:50.558Z,10.00
2018-10-06T05:21:19.750Z,10.00
2018-10-06T05:23:48.017Z,10.00
2018-10-06T05:26:16.100Z,10.00
2018-10-06T05:28:44.618Z,10.00
2018-10-06T05:31:12.947Z,10.10
2018-10-06T05:33:41.559Z,10.00
2018-10-06T05:36:09.802Z,10.10
2018-10-06T05:38:38.256Z,10.10
2018-10-06T05:41:07.055Z,10.10
2018-10-06T05:43:35.320Z,10.10
2018-10-06T05:46:03.590Z,10.00
2018-10-06T05:48:32.539Z,10.00
2018-10-06T05:51:00.948Z,10.10
2018-10-06T05:53:29.525Z,10.10
2018-10-06T05:55:57.787Z,10.10
2018-10-06T05:58:25.849Z,10.10
2018-10-06T06:01:00.554Z,10.10
2018-10-06T06:03:28.735Z,10.10
2018-10-06T06:05:57.213Z,10.10
2018-10-06T06:08:25.243Z,10.10
2018-10-06T06:10:53.689Z,10.20
2018-10-06T06:13:21.694Z,10.20
2018-10-06T06:15:49.948Z,10.20
2018-10-06T06:18:18.383Z,10.20
2018-10-06T06:20:46.554Z,10.20
2018-10-06T06:23:14.627Z,10.30
2018-10-06T06:25:42.822Z,10.30
2018-10-06T06:28:10.783Z,10.30
2018-10-06T06:30:38.999Z,10.30
2018-10-06T06:33:07.086Z,10.30
2018-10-06T06:35:35.148Z,10.30
2018-10-06T06:38:03.304Z,10.30
2018-10-06T06:40:31.979Z,10.30
2018-10-06T06:43:00.105Z,10.40
2018-10-06T06:45:28.054Z,10.30
2018-10-06T06:47:56.031Z,10.40
2018-10-06T06:50:24.211Z,10.40
2018-10-06T06:52:52.246Z,10.40
2018-10-06T06:55:20.278Z,10.50
2018-10-06T06:57:48.212Z,10.50
2018-10-06T07:00:16.693Z,10.60
2018-10-06T07:02:44.870Z,10.60
2018-10-06T07:05:12.882Z,10.60
2018-10-06T07:07:40.871Z,10.60
2018-10-06T07:10:08.937Z,10.70
2018-10-06T07:12:37.182Z,10.80
2018-10-06T07:15:05.916Z,10.90
2018-10-06T07:17:34.236Z,11.00
2018-10-06T07:20:02.416Z,11.10
2018-10-06T07:22:30.422Z,11.10
2018-10-06T07:24:58.553Z,11.10
2018-10-06T07:27:26.744Z,11.10
2018-10-06T07:32:29.461Z,11.00
2018-10-06T07:34:57.626Z,11.10
2018-10-06T07:37:25.888Z,11.20
2018-10-06T07:39:58.674Z,11.30
2018-10-06T07:42:26.726Z,11.30
2018-10-06T07:44:54.884Z,11.40
2018-10-06T07:47:22.983Z,11.40
2018-10-06T07:49:52.239Z,11.50
2018-10-06T07:52:20.850Z,11.50
2018-10-06T07:54:49.631Z,11.50
2018-10-06T07:57:17.967Z,11.60
2018-10-06T07:59:49.375Z,11.50
2018-10-06T08:02:17.635Z,11.50
2018-10-06T08:04:45.806Z,11.40
2018-10-06T08:07:13.893Z,11.50
2018-10-06T08:09:41.942Z,11.50
2018-10-06T08:12:09.980Z,11.50
2018-10-06T08:14:37.934Z,11.40
2018-10-06T08:17:05.927Z,11.40
2018-10-06T08:19:33.821Z,11.40
2018-10-06T08:22:01.999Z,11.40
2018-10-06T08:24:30.174Z,11.30
2018-10-06T08:26:58.219Z,11.40
2018-10-06T08:29:26.380Z,11.40
2018-10-06T08:31:54.567Z,11.60
2018-10-06T08:34:22.705Z,11.70
2018-10-06T08:36:51.187Z,11.90
2018-10-06T08:41:59.787Z,12.00
2018-10-06T08:44:28.035Z,12.10
2018-10-06T08:46:56.298Z,12.00
2018-10-06T08:49:24.714Z,12.00
2018-10-06T08:51:52.785Z,12.00
2018-10-06T08:54:20.748Z,12.00
2018-10-06T08:56:48.789Z,12.00
2018-10-06T08:59:17.053Z,12.10
2018-10-06T09:01:45.441Z,12.20
2018-10-06T09:04:13.843Z,12.40
2018-10-06T09:06:41.889Z,12.50
2018-10-06T09:09:10.042Z,12.70
2018-10-06T09:11:38.046Z,12.60
2018-10-06T09:14:06.126Z,12.60
2018-10-06T09:16:34.324Z,12.60
2018-10-06T09:19:02.447Z,12.60
2018-10-06T09:21:31.254Z,12.60
2018-10-06T09:23:59.211Z,12.60
2018-10-06T09:26:27.476Z,12.50
2018-10-06T09:28:55.442Z,12.30
2018-10-06T09:31:23.573Z,12.30
2018-10-06T09:33:51.947Z,12.10
2018-10-06T09:36:20.161Z,12.00
2018-10-06T09:38:48.268Z,12.00
2018-10-06T09:41:16.544Z,12.10
2018-10-06T09:43:44.876Z,12.20
2018-10-06T09:46:13.241Z,12.20
2018-10-06T09:48:41.656Z,12.30
2018-10-06T09:51:09.818Z,12.30
2018-10-06T09:53:38.007Z,12.30
2018-10-06T09:56:05.955Z,12.30
2018-10-06T09:58:34.051Z,12.30
2018-10-06T10:01:07.893Z,12.30
2018-10-06T10:03:41.607Z,12.40
2018-10-06T10:06:09.937Z,12.50
2018-10-06T10:08:38.089Z,12.50
2018-10-06T10:11:10.277Z,12.60
2018-10-06T10:13:39.965Z,12.70
2018-10-06T10:16:08.075Z,12.80
2018-10-06T10:18:36.092Z,12.70
2018-10-06T10:21:11.189Z,12.70
2018-10-06T10:23:39.334Z,12.70
2018-10-06T10:26:07.507Z,12.60
2018-10-06T10:28:36.437Z,12.70
2018-10-06T10:31:04.458Z,12.60
2018-10-06T10:33:32.449Z,12.60
2018-10-06T10:36:00.408Z,12.60
2018-10-06T10:38:28.677Z,12.70
2018-10-06T10:40:57.087Z,12.80
2018-10-06T10:43:25.081Z,12.80
2018-10-06T10:45:53.193Z,12.80
2018-10-06T10:48:21.222Z,12.80
2018-10-06T10:50:49.324Z,12.70
2018-10-06T10:53:17.264Z,12.70
2018-10-06T10:55:45.792Z,12.80
2018-10-06T10:58:13.880Z,12.80
2018-10-06T11:00:42.073Z,12.90
2018-10-06T11:03:10.323Z,12.90
2018-10-06T11:05:38.601Z,12.90
2018-10-06T11:08:06.620Z,12.80
2018-10-06T11:10:34.812Z,12.70
2018-10-06T11:13:02.977Z,12.80
2018-10-06T11:15:31.059Z,12.90
2018-10-06T11:17:59.184Z,13.00
2018-10-06T11:20:27.420Z,13.00
2018-10-06T11:22:55.855Z,13.10
2018-10-06T11:25:24.925Z,13.00
2018-10-06T11:27:52.995Z,12.90
2018-10-06T11:30:21.078Z,12.80
2018-10-06T11:32:49.417Z,12.80
2018-10-06T11:35:17.601Z,12.80
2018-10-06T11:37:45.988Z,12.80
2018-10-06T11:40:14.085Z,12.90
2018-10-06T11:42:42.195Z,12.80
2018-10-06T11:45:10.783Z,12.80
2018-10-06T11:47:39.793Z,12.80
2018-10-06T11:50:08.104Z,12.90
2018-10-06T11:52:36.147Z,13.00
2018-10-06T11:55:04.480Z,12.90
2018-10-06T11:57:32.662Z,12.80
2018-10-06T12:00:01.208Z,12.80
2018-10-06T12:02:29.291Z,12.80
2018-10-06T12:04:58.415Z,12.70
2018-10-06T12:07:26.576Z,12.70
2018-10-06T12:09:54.515Z,12.60
2018-10-06T12:12:22.712Z,12.60
2018-10-06T12:14:50.870Z,12.60
2018-10-06T12:17:18.764Z,12.60
2018-10-06T12:19:47.298Z,12.60
2018-10-06T12:22:16.079Z,12.70
2018-10-06T12:24:44.242Z,12.60
2018-10-06T12:27:12.240Z,12.60
2018-10-06T12:29:40.474Z,12.50
2018-10-06T12:32:08.522Z,12.50
2018-10-06T12:34:36.563Z,12.50
2018-10-06T12:37:04.592Z,12.60
2018-10-06T12:39:32.603Z,12.70
2018-10-06T12:42:01.047Z,12.70
2018-10-06T12:44:28.911Z,12.70
2018-10-06T12:46:56.953Z,12.70
2018-10-06T12:49:25.579Z,12.70
2018-10-06T12:51:53.672Z,12.70
2018-10-06T12:54:21.920Z,12.70
2018-10-06T12:56:50.166Z,12.70
2018-10-06T12:59:18.451Z,12.50
2018-10-06T13:01:46.528Z,12.40
2018-10-06T13:04:14.571Z,12.40
2018-10-06T13:06:42.960Z,12.30
2018-10-06T13:09:12.134Z,12.20
2018-10-06T13:11:40.796Z,12.20
2018-10-06T13:14:08.981Z,12.10
2018-10-06T13:16:43.831Z,12.00
2018-10-06T13:19:12.079Z,12.10
2018-10-06T13:21:40.205Z,12.10
2018-10-06T13:24:08.352Z,12.00
2018-10-06T13:26:36.590Z,12.00
2018-10-06T13:29:04.700Z,12.00
2018-10-06T13:31:32.860Z,12.00
2018-10-06T13:34:01.248Z,12.00
2018-10-06T13:36:29.223Z,12.00
2018-10-06T13:38:57.297Z,12.00
2018-10-06T13:41:25.401Z,12.10
2018-10-06T13:43:53.346Z,12.10
2018-10-06T13:46:21.332Z,12.10
2018-10-06T13:48:49.309Z,12.00
2018-10-06T13:51:17.207Z,12.00
2018-10-06T13:53:45.465Z,12.00
2018-10-06T13:56:13.581Z,12.10
2018-10-06T13:58:41.925Z,12.10
2018-10-06T14:01:10.129Z,11.90
2018-10-06T14:03:38.168Z,11.90
2018-10-06T14:06:06.371Z,11.90
2018-10-06T14:08:34.437Z,11.80
2018-10-06T14:11:02.415Z,11.80
2018-10-06T14:13:31.133Z,11.80
2018-10-06T14:15:59.736Z,11.80
2018-10-06T14:18:27.929Z,11.80
2018-10-06T14:20:55.975Z,11.70
2018-10-06T14:23:24.245Z,11.70
2018-10-06T14:25:52.914Z,11.70
2018-10-06T14:28:21.016Z,11.60
2018-10-06T14:30:49.121Z,11.60
2018-10-06T14:33:17.794Z,11.70
2018-10-06T14:35:45.877Z,11.70
2018-10-06T14:38:14.467Z,11.70
2018-10-06T14:40:43.101Z,11.60
2018-10-06T14:43:11.098Z,11.70
2018-10-06T14:45:39.001Z,11.70
2018-10-06T14:48:06.995Z,11.70
2018-10-06T14:50:35.065Z,11.70
2018-10-06T14:53:03.191Z,11.70
2018-10-06T14:55:31.572Z,11.70
2018-10-06T14:57:59.634Z,11.70
2018-10-06T15:00:27.686Z,11.70
2018-10-06T15:02:56.071Z,11.60
2018-10-06T15:05:24.118Z,11.60
2018-10-06T15:07:52.425Z,11.50
2018-10-06T15:10:20.572Z,11.50
2018-10-06T15:12:48.838Z,11.50
2018-10-06T15:15:16.841Z,11.50
2018-10-06T15:17:44.994Z,11.40
2018-10-06T15:20:13.058Z,11.40
2018-10-06T15:22:41.104Z,11.30
2018-10-06T15:25:09.292Z,11.30
2018-10-06T15:27:37.440Z,11.30
2018-10-06T15:30:06.246Z,11.30
2018-10-06T15:32:34.451Z,11.30
2018-10-06T15:35:02.568Z,11.30
2018-10-06T15:37:30.649Z,11.30
2018-10-06T15:39:59.990Z,11.30
2018-10-06T15:42:28.361Z,11.30
2018-10-06T15:44:56.346Z,11.30
2018-10-06T15:47:24.396Z,11.20
2018-10-06T15:49:52.454Z,11.20
2018-10-06T15:52:20.590Z,11.20
2018-10-06T15:54:48.666Z,11.10
2018-10-06T15:57:16.940Z,11.10
2018-10-06T15:59:45.019Z,11.10
2018-10-06T16:02:13.106Z,11.10
2018-10-06T16:04:41.014Z,11.10
2018-10-06T16:07:09.036Z,11.10
2018-10-06T16:09:38.778Z,11.10
2018-10-06T16:12:07.056Z,11.00
2018-10-06T16:14:35.487Z,11.00
2018-10-06T16:17:03.639Z,11.00
2018-10-06T16:19:31.759Z,11.00
2018-10-06T16:21:59.769Z,10.90
2018-10-06T16:24:27.801Z,10.90
2018-10-06T16:26:56.295Z,10.90
2018-10-06T16:29:24.435Z,10.90
2018-10-06T16:31:52.569Z,10.90
2018-10-06T16:34:20.792Z,10.90
2018-10-06T16:36:48.754Z,10.80
2018-10-06T16:39:16.759Z,10.80
2018-10-06T16:41:44.898Z,10.80
2018-10-06T16:44:13.155Z,10.80
2018-10-06T16:46:41.146Z,10.80
2018-10-06T16:49:09.603Z,10.70
2018-10-06T16:51:37.514Z,10.70
2018-10-06T16:54:05.559Z,10.70
2018-10-06T16:56:33.839Z,10.70
2018-10-06T16:59:01.901Z,10.60
2018-10-06T17:01:30.083Z,10.60
2018-10-06T17:03:58.192Z,10.60
2018-10-06T17:06:27.203Z,10.60
2018-10-06T17:08:55.321Z,10.60
2018-10-06T17:11:23.289Z,10.60
2018-10-06T17:13:51.318Z,10.60
2018-10-06T17:16:19.346Z,10.50
2018-10-06T17:18:47.431Z,10.50
2018-10-06T17:21:15.433Z,10.50
2018-10-06T17:23:43.893Z,10.50
2018-10-06T17:26:12.058Z,10.50
2018-10-06T17:28:40.199Z,10.50
2018-10-06T17:31:08.324Z,10.50
2018-10-06T17:33:37.099Z,10.40
2018-10-06T17:36:05.643Z,10.50
2018-10-06T17:38:34.069Z,10.40
2018-10-06T17:41:02.447Z,10.40
2018-10-06T17:43:31.819Z,10.40
2018-10-06T17:46:00.145Z,10.40
2018-10-06T17:48:28.698Z,10.40
2018-10-06T17:50:57.465Z,10.40
2018-10-06T17:53:25.847Z,10.40
2018-10-06T17:55:54.144Z,10.40
2018-10-06T17:58:22.291Z,10.30
2018-10-06T18:00:50.545Z,10.40
2018-10-06T18:03:18.706Z,10.30
2018-10-06T18:05:46.741Z,10.30
2018-10-06T18:08:14.781Z,10.40
2018-10-06T18:10:42.865Z,10.30
2018-10-06T18:13:10.859Z,10.30
2018-10-06T18:15:39.101Z,10.30
2018-10-06T18:18:08.825Z,10.30
2018-10-06T18:20:37.151Z,10.30
2018-10-06T18:23:05.211Z,10.30
2018-10-06T18:25:33.405Z,10.30
2018-10-06T18:28:01.582Z,10.30
2018-10-06T18:30:29.702Z,10.30
2018-10-06T18:32:58.216Z,10.20
2018-10-06T18:35:26.299Z,10.30
2018-10-06T18:37:54.311Z,10.30
2018-10-06T18:40:22.453Z,10.20
2018-10-06T18:42:50.744Z,10.20
2018-10-06T18:45:18.900Z,10.20
2018-10-06T18:47:46.901Z,10.20
2018-10-06T18:50:14.954Z,10.20
2018-10-06T18:52:42.989Z,10.20
2018-10-06T18:55:11.237Z,10.20
2018-10-06T18:57:40.226Z,10.20
2018-10-06T19:00:09.061Z,10.20
2018-10-06T19:02:37.070Z,10.20
2018-10-06T19:05:05.030Z,10.20
2018-10-06T19:07:33.160Z,10.20
2018-10-06T19:10:01.520Z,10.20
2018-10-06T19:12:29.535Z,10.20
2018-10-06T19:14:57.672Z,10.20
2018-10-06T19:17:25.659Z,10.10
2018-10-06T19:19:53.671Z,10.10
2018-10-06T19:22:22.223Z,10.10
2018-10-06T19:24:50.323Z,10.10
2018-10-06T19:27:18.520Z,10.10
2018-10-06T19:29:46.524Z,10.10
2018-10-06T19:32:14.740Z,10.10
2018-10-06T19:34:43.035Z,10.10
2018-10-06T19:37:11.470Z,10.10
2018-10-06T19:39:39.501Z,10.00
2018-10-06T19:42:07.638Z,10.10
2018-10-06T19:44:35.568Z,10.00
2018-10-06T19:47:03.642Z,10.00
2018-10-06T19:49:31.639Z,10.00
2018-10-06T19:51:59.753Z,10.00
2018-10-06T19:54:27.823Z,10.00
2018-10-06T19:56:55.885Z,10.00
2018-10-06T19:59:24.038Z,9.90
2018-10-06T20:01:52.090Z,9.90
2018-10-06T20:04:20.330Z,9.90
2018-10-06T20:06:48.396Z,9.90
2018-10-06T20:09:16.807Z,9.90
2018-10-06T20:11:44.799Z,9.90
2018-10-06T20:14:12.955Z,9.90
2018-10-06T20:16:41.173Z,9.90
2018-10-06T20:19:09.550Z,10.00
2018-10-06T20:21:37.456Z,9.90
2018-10-06T20:24:05.494Z,9.90
2018-10-06T20:26:33.560Z,10.00
2018-10-06T20:29:02.215Z,10.00
2018-10-06T20:31:30.599Z,10.00
2018-10-06T20:33:58.688Z,10.00
2018-10-06T20:36:26.708Z,9.90
2018-10-06T20:38:54.832Z,9.90
2018-10-06T20:41:23.807Z,9.90
2018-10-06T20:43:52.213Z,9.90
2018-10-06T20:46:20.873Z,9.80
2018-10-06T20:48:48.894Z,9.80
2018-10-06T20:51:17.014Z,9.80
2018-10-06T20:53:45.374Z,9.80
2018-10-06T20:56:13.352Z,9.80
2018-10-06T20:58:41.739Z,9.80
2018-10-06T21:01:09.952Z,9.80
2018-10-06T21:03:37.914Z,9.80
2018-10-06T21:06:06.166Z,9.80
2018-10-06T21:08:34.003Z,9.80
2018-10-06T21:11:02.068Z,9.80
2018-10-06T21:13:29.984Z,9.80
2018-10-06T21:15:58.030Z,9.80
2018-10-06T21:18:26.051Z,9.80
2018-10-06T21:20:54.108Z,9.80
2018-10-06T21:23:22.266Z,9.80
2018-10-06T21:25:50.248Z,9.80
2018-10-06T21:28:18.322Z,9.70
2018-10-06T21:33:20.184Z,9.70
2018-10-06T21:35:48.291Z,9.70
2018-10-06T21:38:16.172Z,9.60
2018-10-06T21:40:44.362Z,9.70
2018-10-06T21:43:12.503Z,9.60
2018-10-06T21:45:40.435Z,9.60
2018-10-06T21:48:09.074Z,9.60
2018-10-06T21:50:37.241Z,9.60
2018-10-06T21:53:05.506Z,9.70
2018-10-06T21:55:33.577Z,9.80
2018-10-06T21:58:01.606Z,9.80
2018-10-06T22:00:29.664Z,9.80
2018-10-06T22:02:58.061Z,9.70
2018-10-06T22:05:27.684Z,9.70
2018-10-06T22:07:56.321Z,9.60
2018-10-06T22:10:24.271Z,9.60
2018-10-06T22:12:52.261Z,9.70
2018-10-06T22:15:20.408Z,9.70
2018-10-06T22:17:48.334Z,9.80
2018-10-06T22:20:16.850Z,9.80
2018-10-06T22:22:44.916Z,9.70
2018-10-06T22:25:13.052Z,9.70
2018-10-06T22:27:41.112Z,9.70
2018-10-06T22:30:09.306Z,9.70
2018-10-06T22:32:37.252Z,9.70
2018-10-06T22:35:05.248Z,9.60
2018-10-06T22:37:33.478Z,9.60
2018-10-06T22:40:02.097Z,9.70
2018-10-06T22:42:30.099Z,9.70
2018-10-06T22:44:58.247Z,9.70
2018-10-06T22:47:26.299Z,9.60
2018-10-06T22:49:54.228Z,9.60
2018-10-06T22:52:22.303Z,9.60
2018-10-06T22:54:50.263Z,9.70
2018-10-06T22:57:18.322Z,9.60
2018-10-06T22:59:46.213Z,9.60
2018-10-06T23:02:14.260Z,9.50
2018-10-06T23:04:42.311Z,9.50
2018-10-06T23:07:10.363Z,9.50
2018-10-06T23:09:38.253Z,9.50
2018-10-06T23:12:06.292Z,9.50
2018-10-06T23:14:34.350Z,9.50
2018-10-06T23:17:02.416Z,9.50
2018-10-06T23:19:30.391Z,9.50
2018-10-06T23:21:58.466Z,9.50
2018-10-06T23:24:26.420Z,9.50
2018-10-06T23:26:54.554Z,9.50
2018-10-06T23:29:22.549Z,9.50
2018-10-06T23:31:50.652Z,9.50
2018-10-06T23:34:18.750Z,9.50
2018-10-06T23:36:46.878Z,9.50
2018-10-06T23:39:14.962Z,9.50
2018-10-06T23:41:43.082Z,9.50
2018-10-06T23:44:11.015Z,9.50
2018-10-06T23:46:39.075Z,9.40
2018-10-06T23:49:07.060Z,9.40
2018-10-06T23:51:35.128Z,9.40
2018-10-06T23:54:03.102Z,9.40
2018-10-06T23:56:31.125Z,9.40
2018-10-06T23:58:59.037Z,9.40
